Time;durP1;ratioP1;P1;durP2;ratioP2;P2;SDS_P1;SDS_P2;PMS_P1;PMS_P2;Temp;Humidity;BMP_temperature;BMP_pressure;BME280_temperature;BME280_humidity;BME280_pressure;Samples;Min_cycle;Max_cycle;Signal;HPM_P1;HPM_P2
2022/02/24 00:00:34;;;;;;;11.95;2.00;;;8.50;86.60;;;;;;4996630;28;20073;-79
2022/02/24 00:02:59;;;;;;;10.60;2.05;;;8.40;86.80;;;;;;5014427;28;20057;-81
2022/02/24 00:05:25;;;;;;;9.23;1.73;;;8.50;86.80;;;;;;4997079;28;20416;-80
2022/02/24 00:07:51;;;;;;;5.93;1.60;;;8.50;86.80;;;;;;4996668;28;20026;-79
2022/02/24 00:10:17;;;;;;;9.05;1.77;;;8.40;87.00;;;;;;5013876;28;20061;-81
2022/02/24 00:12:43;;;;;;;9.23;1.45;;;8.40;87.00;;;;;;5013819;28;20405;-80
2022/02/24 00:15:09;;;;;;;10.43;2.22;;;8.40;87.00;;;;;;5014269;28;20034;-80
2022/02/24 00:17:35;;;;;;;14.00;1.70;;;8.50;87.10;;;;;;5013934;28;20121;-81
2022/02/24 00:20:02;;;;;;;8.63;1.50;;;8.40;87.20;;;;;;5013567;28;20116;-79
2022/02/24 00:22:27;;;;;;;11.13;2.08;;;8.40;87.10;;;;;;5014109;28;20045;-78
2022/02/24 00:24:54;;;;;;;6.13;2.17;;;8.50;87.20;;;;;;5013839;28;20345;-79
2022/02/24 00:27:20;;;;;;;8.07;1.67;;;8.50;87.00;;;;;;5014262;28;20117;-80
2022/02/24 00:29:46;;;;;;;8.07;1.30;;;8.50;87.10;;;;;;5013573;28;20034;-79
2022/02/24 00:32:12;;;;;;;8.30;1.98;;;8.50;87.00;;;;;;5013568;28;20119;-78
2022/02/24 00:34:37;;;;;;;11.00;1.60;;;8.50;87.00;;;;;;5013408;28;20034;-79
2022/02/24 00:37:03;;;;;;;9.07;1.40;;;8.60;87.00;;;;;;5013266;28;20072;-80
2022/02/24 00:39:29;;;;;;;7.18;1.40;;;8.60;86.90;;;;;;5013702;28;20467;-80
2022/02/24 00:41:54;;;;;;;8.27;1.50;;;8.70;86.90;;;;;;5013370;28;20033;-78
2022/02/24 00:44:20;;;;;;;8.95;1.42;;;8.70;86.60;;;;;;4995759;28;20099;-79
2022/02/24 00:46:46;;;;;;;6.90;1.40;;;8.80;86.50;;;;;;5013101;28;20045;-78
2022/02/24 00:49:12;;;;;;;6.88;1.40;;;8.90;86.10;;;;;;5012656;28;20052;-79
2022/02/24 00:51:38;;;;;;;7.53;1.48;;;8.90;85.50;;;;;;5013122;28;20065;-78
2022/02/24 00:54:04;;;;;;;10.40;1.70;;;8.90;85.50;;;;;;5013520;28;20034;-78
2022/02/24 00:56:31;;;;;;;10.38;1.95;;;9.00;86.20;;;;;;5013017;28;20585;-80
2022/02/24 00:58:56;;;;;;;8.85;1.73;;;8.90;85.50;;;;;;5013417;28;20172;-79
2022/02/24 01:01:22;;;;;;;11.10;1.52;;;9.00;86.10;;;;;;5012850;28;20120;-80
2022/02/24 01:03:48;;;;;;;7.18;1.88;;;8.90;86.10;;;;;;5012830;28;20022;-79
2022/02/24 01:06:14;;;;;;;6.97;1.13;;;8.90;86.40;;;;;;5013406;28;20026;-79
2022/02/24 01:08:39;;;;;;;5.50;1.38;;;9.00;86.20;;;;;;5012798;28;20348;-79
2022/02/24 01:11:05;;;;;;;5.57;1.27;;;9.00;86.10;;;;;;5013034;28;20032;-79
2022/02/24 01:13:31;;;;;;;4.25;1.35;;;9.10;86.00;;;;;;5012893;28;20030;-80
2022/02/24 01:15:56;;;;;;;3.75;1.30;;;9.10;85.80;;;;;;5012769;28;20026;-79
2022/02/24 01:18:22;;;;;;;4.68;1.20;;;9.20;86.10;;;;;;5013220;28;20025;-78
2022/02/24 01:20:48;;;;;;;5.97;1.70;;;9.20;85.80;;;;;;5012661;28;20483;-79
2022/02/24 01:23:14;;;;;;;9.00;1.65;;;9.20;85.80;;;;;;5012579;28;20065;-79
2022/02/24 01:25:40;;;;;;;7.28;1.55;;;9.20;85.80;;;;;;5012756;28;20034;-79
2022/02/24 01:28:05;;;;;;;5.53;1.77;;;9.20;85.80;;;;;;5012645;28;20030;-78
2022/02/24 01:30:32;;;;;;;5.43;1.60;;;9.20;85.70;;;;;;5013005;28;20030;-79
2022/02/24 01:32:57;;;;;;;10.48;1.52;;;9.20;85.80;;;;;;5012787;28;20054;-79
2022/02/24 01:35:23;;;;;;;13.00;1.95;;;9.20;86.00;;;;;;5012270;28;20077;-79
2022/02/24 01:37:49;;;;;;;8.90;1.88;;;9.20;86.10;;;;;;5012395;28;20034;-79
2022/02/24 01:40:15;;;;;;;7.85;1.88;;;9.20;86.30;;;;;;5012327;28;20199;-79
2022/02/24 01:42:41;;;;;;;11.35;1.48;;;9.30;86.20;;;;;;5012622;28;20022;-78
2022/02/24 01:45:09;;;;;;;6.60;1.70;;;9.30;86.40;;;;;;5012880;28;20053;-79
2022/02/24 01:47:34;;;;;;;9.43;1.92;;;9.20;86.60;;;;;;5012473;28;20038;-79
2022/02/24 01:50:01;;;;;;;9.63;1.65;;;9.20;86.70;;;;;;5012078;28;20522;-78
2022/02/24 01:52:28;;;;;;;10.30;1.73;;;9.10;87.20;;;;;;5012365;28;20029;-79
2022/02/24 01:54:53;;;;;;;5.85;1.38;;;9.10;87.40;;;;;;5012277;28;20029;-79
2022/02/24 01:57:19;;;;;;;7.03;1.45;;;9.00;87.10;;;;;;5012601;28;20026;-78
2022/02/24 01:59:46;;;;;;;6.60;1.75;;;9.00;87.60;;;;;;4993750;28;20057;-79
2022/02/24 02:02:14;;;;;;;6.78;1.40;;;9.00;87.50;;;;;;5011897;28;20022;-80
2022/02/24 02:04:40;;;;;;;5.40;1.60;;;9.10;87.30;;;;;;5012054;28;20036;-78
2022/02/24 02:07:05;;;;;;;7.32;1.63;;;9.10;87.20;;;;;;5011913;28;20030;-78
2022/02/24 02:09:32;;;;;;;8.27;1.60;;;9.00;87.30;;;;;;4994998;28;20022;-80
2022/02/24 02:11:58;;;;;;;10.00;1.58;;;9.00;88.00;;;;;;5011924;28;20034;-79
2022/02/24 02:14:24;;;;;;;5.15;1.40;;;9.00;87.90;;;;;;5011841;28;20038;-79
2022/02/24 02:16:51;;;;;;;5.35;1.35;;;9.00;87.70;;;;;;5011621;28;20064;-78
2022/02/24 02:19:18;;;;;;;11.45;1.67;;;9.00;87.40;;;;;;5012177;28;20034;-79
2022/02/24 02:21:44;;;;;;;8.13;1.60;;;9.00;87.70;;;;;;5011757;28;20530;-79
2022/02/24 02:24:11;;;;;;;9.55;1.55;;;9.00;87.70;;;;;;5012517;28;20022;-79
2022/02/24 02:26:36;;;;;;;6.38;1.40;;;9.00;87.80;;;;;;5011784;28;20084;-78
2022/02/24 02:29:04;;;;;;;6.97;1.90;;;9.00;87.70;;;;;;5011673;28;20026;-78
2022/02/24 02:31:30;;;;;;;;;;;9.00;87.70;;;;;;5011918;28;20095;-77
2022/02/24 02:34:06;;;;;;;11.27;1.60;;;9.00;87.70;;;;;;5011341;28;19909;-78
2022/02/24 02:36:32;;;;;;;8.25;1.73;;;9.00;87.60;;;;;;5011481;28;20046;-77
2022/02/24 02:38:58;;;;;;;5.43;1.48;;;9.00;87.70;;;;;;5011550;28;20034;-78
2022/02/24 02:41:28;;;;;;;5.50;1.40;;;9.00;87.80;;;;;;5011206;28;20034;-78
2022/02/24 02:43:55;;;;;;;9.07;1.58;;;9.00;87.90;;;;;;5011281;28;20113;-78
2022/02/24 02:46:20;;;;;;;8.27;2.22;;;9.00;87.70;;;;;;4993495;28;20056;-78
2022/02/24 02:48:46;;;;;;;11.48;1.95;;;9.10;87.80;;;;;;5011242;28;20025;-79
2022/02/24 02:51:12;;;;;;;8.18;1.90;;;9.10;87.70;;;;;;5011710;28;20022;-79
2022/02/24 02:53:38;;;;;;;6.30;1.50;;;9.10;87.50;;;;;;5011667;28;20091;-79
2022/02/24 02:56:06;;;;;;;6.93;1.45;;;9.00;88.10;;;;;;5011234;28;20368;-78
2022/02/24 02:58:32;;;;;;;6.07;1.27;;;9.00;87.70;;;;;;5011138;28;20384;-77
2022/02/24 03:00:58;;;;;;;5.72;1.33;;;9.10;87.50;;;;;;4993472;28;20041;-78
2022/02/24 03:03:24;;;;;;;8.38;1.80;;;9.10;87.40;;;;;;5011926;28;20119;-77
2022/02/24 03:05:55;;;;;;;6.40;1.50;;;9.10;87.30;;;;;;5011040;28;20045;-78
2022/02/24 03:08:21;;;;;;;7.70;1.60;;;9.10;87.50;;;;;;5010916;28;20330;-78
2022/02/24 03:10:48;;;;;;;6.10;1.92;;;9.00;87.50;;;;;;5011812;28;20100;-77
2022/02/24 03:13:14;;;;;;;10.98;1.60;;;9.10;87.60;;;;;;5015039;28;20411;-77
2022/02/24 03:15:40;;;;;;;4.18;1.58;;;9.20;87.50;;;;;;4997527;28;20029;-77
2022/02/24 03:18:06;;;;;;;7.60;1.50;;;9.20;87.30;;;;;;4998072;28;20380;-77
2022/02/24 03:20:32;;;;;;;4.78;1.65;;;9.20;87.30;;;;;;5014865;28;20034;-78
2022/02/24 03:23:03;;;;;;;6.63;1.85;;;9.20;87.30;;;;;;5014778;28;20044;-77
2022/02/24 03:25:30;;;;;;;8.43;1.58;;;9.20;87.30;;;;;;5014938;28;20065;-79
2022/02/24 03:27:56;;;;;;;6.65;1.40;;;9.20;87.20;;;;;;5014893;28;20084;-79
2022/02/24 03:30:23;;;;;;;9.63;1.80;;;9.30;87.00;;;;;;5015135;28;20025;-79
2022/02/24 03:32:49;;;;;;;6.50;1.52;;;9.30;86.70;;;;;;5014861;28;20030;-78
2022/02/24 03:35:16;;;;;;;7.78;1.58;;;9.30;87.20;;;;;;5014362;28;20254;-78
2022/02/24 03:37:42;;;;;;;7.65;1.30;;;9.20;87.30;;;;;;5014664;28;20034;-79
2022/02/24 03:40:08;;;;;;;9.88;1.52;;;9.20;87.50;;;;;;5014450;28;20030;-77
2022/02/24 03:42:35;;;;;;;7.90;1.70;;;9.10;87.70;;;;;;5014296;28;20037;-78
2022/02/24 03:45:01;;;;;;;4.40;1.73;;;9.10;88.10;;;;;;5014866;28;20048;-78
2022/02/24 03:47:27;;;;;;;8.68;1.77;;;9.20;87.90;;;;;;5014356;28;20459;-76
2022/02/24 03:49:53;;;;;;;5.88;1.42;;;9.20;87.80;;;;;;5014530;28;20052;-79
2022/02/24 03:52:19;;;;;;;4.28;1.10;;;9.30;88.10;;;;;;5014129;28;20476;-79
2022/02/24 03:54:46;;;;;;;7.32;1.42;;;9.30;87.60;;;;;;5014164;28;20045;-78
2022/02/24 03:57:11;;;;;;;10.05;1.60;;;9.30;87.60;;;;;;5014595;28;20097;-78
2022/02/24 03:59:37;;;;;;;10.73;2.45;;;9.40;87.70;;;;;;5014430;28;20543;-78
2022/02/24 04:02:04;;;;;;;7.15;2.03;;;9.40;87.80;;;;;;5013998;28;20483;-78
2022/02/24 04:04:30;;;;;;;6.18;1.77;;;9.40;87.70;;;;;;5013975;28;20038;-78
2022/02/24 04:06:56;;;;;;;4.28;1.30;;;9.40;88.10;;;;;;5013921;28;20113;-78
2022/02/24 04:09:21;;;;;;;7.68;1.45;;;9.40;87.90;;;;;;5014245;28;20369;-79
2022/02/24 04:11:48;;;;;;;3.88;1.77;;;9.50;88.00;;;;;;5013890;28;20415;-78
2022/02/24 04:14:14;;;;;;;5.90;2.08;;;9.40;88.00;;;;;;5013731;28;20095;-78
2022/02/24 04:16:40;;;;;;;8.77;2.13;;;9.50;87.70;;;;;;5013806;28;20425;-80
2022/02/24 04:19:05;;;;;;;6.72;1.60;;;9.50;87.80;;;;;;5013772;28;20235;-78
2022/02/24 04:21:31;;;;;;;7.63;1.38;;;9.40;87.90;;;;;;5014048;28;20456;-78
2022/02/24 04:23:56;;;;;;;6.75;1.30;;;9.40;88.20;;;;;;4995425;28;20057;-79
2022/02/24 04:26:22;;;;;;;4.60;1.50;;;9.50;88.20;;;;;;5013629;28;20037;-78
2022/02/24 04:28:48;;;;;;;7.82;1.30;;;9.50;87.90;;;;;;4996242;28;20152;-78
2022/02/24 04:31:13;;;;;;;6.30;1.77;;;9.50;87.90;;;;;;5013554;28;20038;-78
2022/02/24 04:33:39;;;;;;;7.35;1.40;;;9.50;88.00;;;;;;5013448;28;20022;-78
2022/02/24 04:36:05;;;;;;;10.90;1.75;;;9.50;88.00;;;;;;5013791;28;20046;-78
2022/02/24 04:38:31;;;;;;;8.85;1.95;;;9.50;87.80;;;;;;5013453;28;20030;-78
2022/02/24 04:40:56;;;;;;;6.07;1.67;;;9.50;88.00;;;;;;5013323;28;20388;-79
2022/02/24 04:43:22;;;;;;;8.82;1.60;;;9.60;88.00;;;;;;5013606;28;20022;-78
2022/02/24 04:45:47;;;;;;;9.75;1.58;;;9.60;87.80;;;;;;5013161;28;20414;-78
2022/02/24 04:48:13;;;;;;;8.07;1.45;;;9.60;88.00;;;;;;5013625;28;20057;-79
2022/02/24 04:50:39;;;;;;;8.02;2.28;;;9.60;88.00;;;;;;5013472;28;20041;-78
2022/02/24 04:53:05;;;;;;;8.98;1.85;;;9.60;88.00;;;;;;5013198;28;20037;-79
2022/02/24 04:55:31;;;;;;;7.82;2.08;;;9.60;88.00;;;;;;5013082;28;20521;-79
2022/02/24 04:57:56;;;;;;;8.15;1.75;;;9.60;88.10;;;;;;5013088;28;20534;-80
2022/02/24 05:00:22;;;;;;;5.63;1.40;;;9.60;87.90;;;;;;5013429;28;20057;-77
2022/02/24 05:02:47;;;;;;;11.13;1.85;;;9.60;87.90;;;;;;5013048;28;20056;-77
2022/02/24 05:05:13;;;;;;;8.40;1.70;;;9.60;87.90;;;;;;5013021;28;20029;-79
2022/02/24 05:07:39;;;;;;;4.07;1.40;;;9.70;87.80;;;;;;5012928;28;20411;-77
2022/02/24 05:10:07;;;;;;;11.55;2.25;;;9.70;87.60;;;;;;5013007;28;20107;-79
2022/02/24 05:12:32;;;;;;;6.90;1.65;;;9.70;87.60;;;;;;5012848;28;20037;-79
2022/02/24 05:14:58;;;;;;;12.18;2.28;;;9.70;87.70;;;;;;5013343;28;20418;-78
2022/02/24 05:17:23;;;;;;;10.88;2.13;;;9.80;87.80;;;;;;5012696;28;20029;-80
2022/02/24 05:19:50;;;;;;;7.28;1.67;;;9.80;87.80;;;;;;5012836;28;20430;-77
2022/02/24 05:22:16;;;;;;;7.00;1.55;;;9.80;87.70;;;;;;5012896;28;20087;-78
2022/02/24 05:24:41;;;;;;;8.95;1.40;;;9.80;87.80;;;;;;5012481;28;20351;-80
2022/02/24 05:27:07;;;;;;;10.20;1.90;;;9.70;87.60;;;;;;5013083;28;20093;-79
2022/02/24 05:29:32;;;;;;;7.00;1.50;;;9.70;87.70;;;;;;4995069;28;20384;-78
2022/02/24 05:31:58;;;;;;;5.70;1.40;;;9.70;87.70;;;;;;5012528;28;20056;-79
2022/02/24 05:34:24;;;;;;;8.25;1.90;;;9.70;87.70;;;;;;5012313;28;20096;-79
2022/02/24 05:36:50;;;;;;;9.95;1.85;;;9.70;87.80;;;;;;5012139;28;20046;-79
2022/02/24 05:39:15;;;;;;;7.18;1.77;;;9.70;88.00;;;;;;5012875;28;20032;-79
2022/02/24 05:41:41;;;;;;;8.43;1.80;;;9.70;87.70;;;;;;5012251;28;20061;-79
2022/02/24 05:44:07;;;;;;;5.85;1.52;;;9.70;87.90;;;;;;5012215;28;20618;-79
2022/02/24 05:46:32;;;;;;;9.18;2.15;;;9.70;88.00;;;;;;5012358;28;20049;-81
2022/02/24 05:48:59;;;;;;;5.72;1.73;;;9.70;88.00;;;;;;4978635;28;20038;-80
2022/02/24 05:51:25;;;;;;;5.65;1.73;;;9.70;88.00;;;;;;5012449;28;20030;-77
2022/02/24 05:53:50;;;;;;;8.40;1.40;;;9.70;88.20;;;;;;5012062;28;20446;-80
2022/02/24 05:56:16;;;;;;;4.80;1.67;;;9.70;88.00;;;;;;4994957;28;20030;-80
2022/02/24 05:58:42;;;;;;;9.18;2.33;;;9.80;88.00;;;;;;4994696;28;20037;-79
2022/02/24 06:01:09;;;;;;;7.00;1.40;;;9.80;87.90;;;;;;5012527;28;20117;-78
2022/02/24 06:03:35;;;;;;;6.72;1.95;;;9.80;87.70;;;;;;4994550;28;20029;-80
2022/02/24 06:06:01;;;;;;;6.43;1.77;;;9.80;87.80;;;;;;4994735;28;20029;-79
2022/02/24 06:08:27;;;;;;;6.97;1.88;;;9.80;87.80;;;;;;5012377;28;20030;-77
2022/02/24 06:10:52;;;;;;;10.90;2.13;;;9.90;87.70;;;;;;5011779;28;20434;-78
2022/02/24 06:13:18;;;;;;;12.30;1.98;;;9.90;87.70;;;;;;5011583;28;20030;-78
2022/02/24 06:15:44;;;;;;;5.15;1.73;;;9.90;87.70;;;;;;5011667;28;20499;-77
2022/02/24 06:18:16;;;;;;;6.88;1.80;;;9.90;87.60;;;;;;5012275;28;20030;-77
2022/02/24 06:20:42;;;;;;;11.43;1.65;;;9.90;87.50;;;;;;5011482;28;20107;-76
2022/02/24 06:23:08;;;;;;;7.90;1.80;;;9.90;87.40;;;;;;5011709;28;20030;-79
2022/02/24 06:25:33;;;;;;;10.48;2.15;;;9.90;87.40;;;;;;5011501;28;20049;-77
2022/02/24 06:27:59;;;;;;;11.05;2.20;;;10.00;86.40;;;;;;4994358;28;20096;-76
2022/02/24 06:30:25;;;;;;;7.82;1.65;;;10.00;86.30;;;;;;5012002;28;20102;-78
2022/02/24 06:32:51;;;;;;;6.13;1.45;;;10.00;86.30;;;;;;5011375;28;20490;-77
2022/02/24 06:35:16;;;;;;;5.68;1.77;;;10.00;86.30;;;;;;5011015;28;20046;-75
2022/02/24 06:37:43;;;;;;;11.35;2.28;;;10.00;86.30;;;;;;5011106;28;20466;-76
2022/02/24 06:40:11;;;;;;;10.90;2.60;;;10.10;86.40;;;;;;5011179;28;20464;-82
2022/02/24 06:42:36;;;;;;;10.70;1.90;;;10.10;86.20;;;;;;4993960;28;20057;-78
2022/02/24 06:45:03;;;;;;;9.02;1.95;;;10.10;86.30;;;;;;5011283;28;20064;-76
2022/02/24 06:47:29;;;;;;;4.63;1.80;;;10.10;86.20;;;;;;5011180;28;20041;-77
2022/02/24 06:49:54;;;;;;;14.80;2.72;;;10.10;86.20;;;;;;5011281;28;20026;-78
2022/02/24 06:52:20;;;;;;;6.90;2.13;;;10.10;86.30;;;;;;5011313;28;20026;-77
2022/02/24 06:54:46;;;;;;;10.48;2.10;;;10.10;86.50;;;;;;5011061;28;20030;-75
2022/02/24 06:57:11;;;;;;;8.35;2.00;;;10.10;86.40;;;;;;5011400;28;20071;-75
2022/02/24 06:59:37;;;;;;;11.30;1.90;;;10.30;86.50;;;;;;5010637;28;20505;-77
2022/02/24 07:02:04;;;;;;;9.70;2.25;;;10.10;86.10;;;;;;4993299;28;20033;-76
2022/02/24 07:04:30;;;;;;;8.93;2.00;;;10.10;86.30;;;;;;5010908;28;20025;-74
2022/02/24 07:06:58;;;;;;;6.75;1.55;;;10.20;86.40;;;;;;5010896;28;20030;-74
2022/02/24 07:09:25;;;;;;;9.50;2.38;;;10.20;86.40;;;;;;5011251;28;20370;-75
2022/02/24 07:11:50;;;;;;;9.35;2.20;;;10.20;86.30;;;;;;5010724;28;20456;-76
2022/02/24 07:14:16;;;;;;;7.97;2.75;;;10.30;86.90;;;;;;5010578;28;20210;-77
2022/02/24 07:16:41;;;;;;;11.98;2.50;;;10.20;86.30;;;;;;4993396;28;20113;-75
2022/02/24 07:19:07;;;;;;;9.95;2.58;;;10.20;86.40;;;;;;4993212;28;20026;-75
2022/02/24 07:21:33;;;;;;;8.98;2.65;;;10.20;86.40;;;;;;4993147;28;20396;-70
2022/02/24 07:23:58;;;;;;;11.50;3.05;;;10.20;86.60;;;;;;5011368;28;20332;-70
2022/02/24 07:26:24;;;;;;;6.03;1.75;;;10.20;87.60;;;;;;4993166;28;20461;-75
2022/02/24 07:28:50;;;;;;;8.48;2.10;;;10.20;86.60;;;;;;5010460;28;20227;-75
2022/02/24 07:31:15;;;;;;;7.80;2.30;;;10.10;86.70;;;;;;5010880;28;20455;-79
2022/02/24 07:33:41;;;;;;;9.52;2.42;;;10.10;87.20;;;;;;5010058;28;20029;-79
2022/02/24 07:36:07;;;;;;;11.70;3.53;;;10.10;86.90;;;;;;5001846;28;20045;-73
2022/02/24 07:38:32;;;;;;;8.55;2.97;;;10.20;87.20;;;;;;5010662;28;20034;-74
2022/02/24 07:40:59;;;;;;;4.22;1.48;;;10.20;87.10;;;;;;5011065;28;20482;-72
2022/02/24 07:43:25;;;;;;;9.73;1.95;;;10.20;87.10;;;;;;5011784;28;20216;-75
2022/02/24 07:45:50;;;;;;;6.72;1.65;;;10.20;87.00;;;;;;4993794;28;20109;-76
2022/02/24 07:48:16;;;;;;;12.60;2.60;;;10.20;87.10;;;;;;5011471;28;20125;-77
2022/02/24 07:50:42;;;;;;;15.93;1.98;;;10.20;87.30;;;;;;5010907;28;20026;-76
2022/02/24 07:53:08;;;;;;;4.70;1.95;;;10.10;87.30;;;;;;4993516;28;20363;-75
2022/02/24 07:55:34;;;;;;;11.27;2.35;;;10.10;87.40;;;;;;5011220;28;20026;-77
2022/02/24 07:57:59;;;;;;;9.15;2.00;;;10.10;87.40;;;;;;4994995;28;20212;-80
2022/02/24 08:00:25;;;;;;;11.07;1.85;;;10.10;87.60;;;;;;5014857;28;20041;-77
2022/02/24 08:02:55;;;;;;;12.35;2.03;;;10.10;87.50;;;;;;5014684;28;20499;-75
2022/02/24 08:05:21;;;;;;;9.10;2.33;;;10.20;87.70;;;;;;5012681;28;20186;-75
2022/02/24 08:07:47;;;;;;;10.95;1.85;;;10.10;87.60;;;;;;4994699;28;20030;-79
2022/02/24 08:10:13;;;;;;;9.43;2.10;;;10.10;87.50;;;;;;4977364;28;20029;-77
2022/02/24 08:12:39;;;;;;;5.50;2.10;;;10.20;87.60;;;;;;4994843;28;20023;-78
2022/02/24 08:15:09;;;;;;;10.27;2.40;;;10.10;87.50;;;;;;4995532;28;20026;-78
2022/02/24 08:17:34;;;;;;;8.20;1.80;;;10.10;87.70;;;;;;4997347;28;20022;-90
2022/02/24 08:20:01;;;;;;;8.00;2.13;;;10.10;87.70;;;;;;4997251;28;20038;-82
2022/02/24 08:22:26;;;;;;;11.20;2.25;;;10.20;87.90;;;;;;4995065;28;20172;-77
2022/02/24 08:24:52;;;;;;;10.60;1.92;;;10.20;88.00;;;;;;4997091;28;20042;-86
2022/02/24 08:27:18;;;;;;;11.95;4.25;;;10.10;88.00;;;;;;4980604;28;20106;-86
2022/02/24 08:29:43;;;;;;;12.70;3.10;;;10.20;88.00;;;;;;4978223;28;20026;-76
2022/02/24 08:32:09;;;;;;;5.55;1.70;;;10.10;88.00;;;;;;4994283;28;20041;-76
2022/02/24 08:34:35;;;;;;;6.55;1.90;;;10.20;88.00;;;;;;4996387;28;20034;-82
2022/02/24 08:37:00;;;;;;;5.20;1.73;;;10.30;88.00;;;;;;4996128;28;20034;-83
2022/02/24 08:39:26;;;;;;;10.13;2.60;;;10.30;87.80;;;;;;4996889;28;20082;-82
2022/02/24 08:41:52;;;;;;;12.88;2.67;;;10.40;87.80;;;;;;4995841;28;20103;-80
2022/02/24 08:44:18;;;;;;;7.22;1.70;;;10.60;87.60;;;;;;4995579;28;20026;-79
2022/02/24 08:46:44;;;;;;;7.93;1.95;;;10.70;87.50;;;;;;4996327;28;20384;-80
2022/02/24 08:49:12;;;;;;;10.05;3.38;;;10.70;87.30;;;;;;4995151;28;20045;-85
2022/02/24 08:51:38;;;;;;;9.43;3.87;;;10.80;87.20;;;;;;4995146;28;20117;-84
2022/02/24 08:54:03;;;;;;;16.33;2.80;;;10.90;87.00;;;;;;4995440;28;20113;-84
2022/02/24 08:56:29;;;;;;;11.15;4.38;;;10.80;86.70;;;;;;4996495;28;20038;-89
2022/02/24 08:58:54;;;;;;;6.28;2.00;;;10.80;86.60;;;;;;4996603;28;20066;-82
2022/02/24 09:01:20;;;;;;;10.02;2.15;;;10.80;86.70;;;;;;4994991;28;20038;-83
2022/02/24 09:03:45;;;;;;;9.40;1.73;;;10.90;86.90;;;;;;4995620;28;20030;-81
2022/02/24 09:06:11;;;;;;;12.02;2.30;;;10.80;86.70;;;;;;4994160;28;20380;-79
2022/02/24 09:08:37;;;;;;;9.82;2.03;;;10.80;86.90;;;;;;4981562;28;20053;-88
2022/02/24 09:11:06;;;;;;;6.05;1.75;;;10.70;86.80;;;;;;4999269;28;20054;-80
2022/02/24 09:13:32;;;;;;;12.55;2.10;;;10.60;86.90;;;;;;4996922;28;20038;-79
2022/02/24 09:15:57;;;;;;;6.25;1.73;;;10.60;87.00;;;;;;4997219;28;20030;-81
2022/02/24 09:18:23;;;;;;;10.73;1.88;;;10.60;87.80;;;;;;5002333;28;20050;-87
2022/02/24 09:20:49;;;;;;;5.75;1.70;;;10.70;87.20;;;;;;4997923;28;20137;-79
2022/02/24 09:23:15;;;;;;;8.82;2.17;;;10.60;87.00;;;;;;4978884;28;20050;-82
2022/02/24 09:25:41;;;;;;;7.82;1.80;;;10.60;86.90;;;;;;4993758;28;20038;-84
2022/02/24 09:28:07;;;;;;;6.15;1.95;;;10.60;87.10;;;;;;5004558;28;20030;-88
2022/02/24 09:30:41;;;;;;;5.22;1.60;;;10.60;87.10;;;;;;5014070;28;20026;-85
2022/02/24 09:33:07;;;;;;;11.35;2.08;;;10.70;87.20;;;;;;4989413;28;20459;-85
2022/02/24 09:35:33;;;;;;;8.52;1.85;;;10.60;87.10;;;;;;5015580;28;20050;-82
2022/02/24 09:37:59;;;;;;;4.28;1.80;;;10.60;87.10;;;;;;5015238;28;20064;-85
2022/02/24 09:40:25;;;;;;;9.23;2.72;;;10.70;87.10;;;;;;5014601;28;20431;-82
2022/02/24 09:42:51;;;;;;;14.68;4.13;;;10.70;87.10;;;;;;4996331;28;20033;-84
2022/02/24 09:45:19;;;;;;;6.03;2.25;;;10.80;87.40;;;;;;4987812;28;20014;-89
2022/02/24 09:47:50;;;;;;;15.07;2.05;;;10.80;87.40;;;;;;4999556;28;20391;-88
2022/02/24 09:50:15;;;;;;;10.90;1.58;;;10.80;87.30;;;;;;5014741;28;20081;-86
2022/02/24 09:52:41;;;;;;;10.93;2.22;;;10.80;87.20;;;;;;5014833;28;20568;-85
2022/02/24 09:55:07;;;;;;;9.10;1.73;;;10.80;87.00;;;;;;5013352;28;20025;-86
2022/02/24 09:57:33;;;;;;;7.55;2.30;;;10.90;87.10;;;;;;5013088;28;20052;-81
2022/02/24 09:59:58;;;;;;;5.53;1.75;;;11.00;86.80;;;;;;4995347;28;20432;-81
2022/02/24 10:02:24;;;;;;;10.02;1.88;;;11.00;86.20;;;;;;5013186;28;20041;-78
2022/02/24 10:05:16;;;;;;;5.47;1.58;;;11.80;86.00;;;;;;5009424;28;20029;-80
2022/02/24 10:07:43;;;;;;;5.57;1.77;;;12.20;84.00;;;;;;4994224;28;20041;-84
2022/02/24 10:10:26;;;;;;;7.72;1.98;;;12.40;83.80;;;;;;5012925;28;20044;-81
2022/02/24 10:13:04;;;;;;;8.43;1.90;;;12.40;82.40;;;;;;5014777;28;20169;-83
2022/02/24 10:15:29;;;;;;;8.07;2.17;;;12.40;81.90;;;;;;4996605;28;20177;-83
2022/02/24 10:18:09;;;;;;;8.75;1.30;;;12.60;82.00;;;;;;5013606;28;20074;-82
2022/02/24 10:20:39;;;;;;;7.45;1.80;;;13.10;82.50;;;;;;5011722;28;20045;-82
2022/02/24 10:23:04;;;;;;;7.03;1.65;;;13.50;79.50;;;;;;5012403;28;20027;-85
2022/02/24 10:25:38;;;;;;;11.40;1.67;;;13.70;78.60;;;;;;5013697;28;20419;-84
2022/02/24 10:28:05;;;;;;;9.52;2.38;;;13.60;78.80;;;;;;4996609;28;20083;-84
2022/02/24 10:30:31;;;;;;;9.95;2.05;;;14.20;78.40;;;;;;5014809;28;20045;-88
2022/02/24 10:33:00;;;;;;;6.68;2.15;;;15.40;78.20;;;;;;5015358;28;20030;-87
2022/02/24 10:35:34;;;;;;;9.63;3.45;;;15.90;73.90;;;;;;5013205;28;20065;-82
2022/02/24 10:38:06;;;;;;;5.80;1.90;;;16.50;72.20;;;;;;5013595;28;20494;-82
2022/02/24 10:40:38;;;;;;;2.78;1.40;;;17.50;73.50;;;;;;5014201;28;20038;-85
2022/02/24 10:43:24;;;;;;;8.55;2.08;;;17.90;69.80;;;;;;5022285;28;20030;-85
2022/02/24 10:46:13;;;;;;;6.03;1.77;;;18.70;67.30;;;;;;5018941;28;20022;-83
2022/02/24 10:48:54;;;;;;;7.75;1.83;;;19.40;65.30;;;;;;4998007;28;20060;-82
2022/02/24 10:51:25;;;;;;;3.97;1.63;;;20.30;63.90;;;;;;5015324;28;20431;-82
2022/02/24 10:54:09;;;;;;;5.10;1.73;;;20.80;62.50;;;;;;5015262;28;20045;-83
2022/02/24 10:56:42;;;;;;;7.57;2.35;;;21.20;59.80;;;;;;5017511;28;20120;-82
2022/02/24 10:59:08;;;;;;;5.00;1.35;;;21.30;58.20;;;;;;5001839;28;20034;-80
2022/02/24 11:01:35;;;;;;;5.60;1.50;;;22.20;58.00;;;;;;5013112;28;20141;-82
2022/02/24 11:04:03;;;;;;;8.63;1.50;;;22.70;56.90;;;;;;5013423;28;20080;-78
2022/02/24 11:06:36;;;;;;;8.02;1.67;;;22.70;55.00;;;;;;5013037;28;20091;-76
2022/02/24 11:09:04;;;;;;;5.90;1.83;;;23.00;54.40;;;;;;4995404;28;20479;-80
2022/02/24 11:11:31;;;;;;;4.18;1.60;;;23.30;54.00;;;;;;5000228;28;20034;-79
2022/02/24 11:13:59;;;;;;;3.38;1.20;;;23.50;52.60;;;;;;4996709;28;20068;-83
2022/02/24 11:16:25;;;;;;;6.40;2.88;;;23.00;53.10;;;;;;5013994;28;20030;-82
2022/02/24 11:18:52;;;;;;;5.25;1.52;;;23.00;52.00;;;;;;5013909;28;20030;-83
2022/02/24 11:21:19;;;;;;;6.25;2.53;;;23.10;51.70;;;;;;5014149;28;20058;-81
2022/02/24 11:23:47;;;;;;;7.90;1.33;;;22.80;51.40;;;;;;5012198;28;20049;-82
2022/02/24 11:26:34;;;;;;;2.67;1.13;;;22.60;52.40;;;;;;5011411;28;20034;-83
2022/02/24 11:29:21;;;;;;;5.63;1.80;;;22.50;51.10;;;;;;5011427;28;20045;-77
2022/02/24 11:32:05;;;;;;;4.17;1.30;;;22.10;51.50;;;;;;5012624;28;20041;-80
2022/02/24 11:34:53;;;;;;;9.07;1.48;;;22.00;51.70;;;;;;4997695;28;20267;-80
2022/02/24 11:37:21;;;;;;;4.25;1.23;;;22.00;52.10;;;;;;5016731;28;20038;-82
2022/02/24 11:39:47;;;;;;;7.00;1.45;;;21.80;51.40;;;;;;5017366;28;20101;-87
2022/02/24 11:42:24;;;;;;;6.63;1.17;;;21.70;51.90;;;;;;5016387;28;20428;-91
2022/02/24 11:44:50;;;;;;;3.83;1.63;;;21.40;51.50;;;;;;5015960;28;20466;-84
2022/02/24 11:47:16;;;;;;;5.15;1.17;;;21.50;52.10;;;;;;5015362;28;20022;-84
2022/02/24 11:49:53;;;;;;;3.05;1.60;;;21.00;51.60;;;;;;5015378;28;20047;-85
2022/02/24 11:52:24;;;;;;;5.47;1.30;;;20.70;52.20;;;;;;4997101;28;20427;-78
2022/02/24 11:54:51;;;;;;;3.65;1.42;;;20.90;52.20;;;;;;4997274;28;20029;-79
2022/02/24 11:57:37;;;;;;;5.63;1.40;;;20.20;51.90;;;;;;5015256;28;20084;-82
2022/02/24 12:00:13;;;;;;;5.55;2.35;;;19.10;53.30;;;;;;5015429;28;20044;-85
2022/02/24 12:02:49;;;;;;;4.20;1.15;;;18.50;54.10;;;;;;5014668;28;20038;-78
2022/02/24 12:05:19;;;;;;;3.85;1.23;;;18.00;55.10;;;;;;5014185;28;20034;-79
2022/02/24 12:08:05;;;;;;;5.43;1.20;;;17.10;56.00;;;;;;4999101;28;20129;-83
2022/02/24 12:10:41;;;;;;;5.15;1.02;;;16.50;57.60;;;;;;5016827;28;20034;-86
2022/02/24 12:13:32;;;;;;;2.42;0.80;;;16.30;58.20;;;;;;5017551;28;20048;-79
2022/02/24 12:16:21;;;;;;;3.85;1.23;;;16.20;58.80;;;;;;5000575;28;20480;-87
2022/02/24 12:18:48;;;;;;;3.60;0.95;;;15.90;58.90;;;;;;5020611;28;20083;-90
2022/02/24 12:21:34;;;;;;;3.33;1.10;;;15.30;60.00;;;;;;5001462;28;20405;-85
2022/02/24 12:24:05;;;;;;;4.55;1.00;;;15.30;61.30;;;;;;5019536;28;20030;-86
2022/02/24 12:26:40;;;;;;;10.55;1.33;;;15.30;61.90;;;;;;5016505;28;20030;-76
2022/02/24 12:29:37;;;;;;;5.07;1.70;;;15.20;62.40;;;;;;4998134;28;20060;-80
2022/02/24 12:32:05;;;;;;;7.43;1.42;;;14.80;63.90;;;;;;5016841;28;20126;-83
2022/02/24 12:34:32;;;;;;;4.00;1.25;;;15.00;63.40;;;;;;5018400;28;20117;-82
2022/02/24 12:37:07;;;;;;;3.08;0.95;;;14.60;64.20;;;;;;5016460;28;20052;-87
2022/02/24 12:39:34;;;;;;;10.98;1.30;;;14.40;64.80;;;;;;5015037;28;20073;-82
2022/02/24 12:42:04;;;;;;;4.60;1.20;;;14.40;65.50;;;;;;5015670;28;20392;-82
2022/02/24 12:44:31;;;;;;;3.42;1.15;;;14.20;66.00;;;;;;5016643;28;20022;-84
2022/02/24 12:46:57;;;;;;;4.63;1.50;;;14.10;66.70;;;;;;5019054;28;20056;-85
2022/02/24 12:49:23;;;;;;;6.82;1.45;;;14.00;67.50;;;;;;5019330;28;20026;-87
2022/02/24 12:51:48;;;;;;;5.75;2.97;;;13.80;68.60;;;;;;5017690;28;20045;-81